createdAt,value
2022-10-09T00:01:08.686Z,101389.53
2022-10-09T00:03:36.991Z,101397.50
2022-10-09T00:06:04.895Z,101395.50
2022-10-09T00:08:31.803Z,101400.19
2022-10-09T00:10:58.227Z,101402.28
2022-10-09T00:13:24.707Z,101399.72
2022-10-09T00:15:51.206Z,101401.97
2022-10-09T00:18:18.613Z,101409.78
2022-10-09T00:20:46.571Z,101410.81
2022-10-09T00:23:15.258Z,101411.63
2022-10-09T00:25:53.542Z,101415.53
2022-10-09T00:28:21.344Z,101414.31
2022-10-09T00:30:48.163Z,101412.06
2022-10-09T00:33:14.833Z,101415.56
2022-10-09T00:35:41.690Z,101416.00
2022-10-09T00:38:08.719Z,101416.22
2022-10-09T00:40:37.445Z,101409.44
2022-10-09T00:43:06.989Z,101406.75
2022-10-09T00:45:33.653Z,101406.09
2022-10-09T00:48:03.120Z,101405.47
2022-10-09T00:50:46.509Z,101405.72
2022-10-09T00:53:18.535Z,101404.16
2022-10-09T00:55:45.843Z,101402.09
2022-10-09T00:58:13.096Z,101398.22
2022-10-09T01:00:40.639Z,101393.06
2022-10-09T01:03:07.199Z,101391.63
2022-10-09T01:06:04.445Z,101383.00
2022-10-09T01:09:09.925Z,101379.31
2022-10-09T01:11:49.171Z,101380.13
2022-10-09T01:14:32.382Z,101380.53
2022-10-09T01:17:05.121Z,101384.03
2022-10-09T01:19:42.371Z,101379.31
2022-10-09T01:22:29.163Z,101385.88
2022-10-09T01:25:05.156Z,101374.97
2022-10-09T01:27:33.138Z,101375.19
2022-10-09T01:30:08.231Z,101375.59
2022-10-09T01:32:38.686Z,101387.84
2022-10-09T01:35:07.004Z,101388.69
2022-10-09T01:37:35.744Z,101392.44
2022-10-09T01:40:04.458Z,101401.69
2022-10-09T01:42:32.565Z,101399.44
2022-10-09T01:44:59.084Z,101403.53
2022-10-09T01:47:26.156Z,101405.22
2022-10-09T01:50:03.942Z,101398.59
2022-10-09T01:52:40.388Z,101403.25
2022-10-09T01:55:45.546Z,101400.22
2022-10-09T01:58:23.487Z,101397.34
2022-10-09T02:01:09.634Z,101399.75
2022-10-09T02:03:40.769Z,101397.25
2022-10-09T02:06:12.316Z,101398.94
2022-10-09T02:08:40.284Z,101395.69
2022-10-09T02:11:07.495Z,101398.16
2022-10-09T02:13:35.977Z,101395.50
2022-10-09T02:16:05.767Z,101403.06
2022-10-09T02:18:42.320Z,101397.16
2022-10-09T02:21:15.151Z,101401.25
2022-10-09T02:23:45.127Z,101395.06
2022-10-09T02:26:12.816Z,101398.56
2022-10-09T02:28:43.819Z,101406.34
2022-10-09T02:31:17.041Z,101405.53
2022-10-09T02:33:43.585Z,101399.75
2022-10-09T02:36:10.334Z,101400.59
2022-10-09T02:38:36.808Z,101389.34
2022-10-09T02:41:03.566Z,101399.56
2022-10-09T02:43:30.078Z,101401.41
2022-10-09T02:45:56.524Z,101394.41
2022-10-09T02:48:23.009Z,101404.69
2022-10-09T02:50:49.519Z,101406.34
2022-10-09T02:53:16.055Z,101401.84
2022-10-09T02:55:42.512Z,101405.09
2022-10-09T02:58:08.934Z,101410.00
2022-10-09T03:00:37.335Z,101412.66
2022-10-09T03:03:04.230Z,101410.59
2022-10-09T03:05:30.739Z,101413.69
2022-10-09T03:07:57.213Z,101419.03
2022-10-09T03:10:23.719Z,101418.56
2022-10-09T03:12:50.514Z,101417.94
2022-10-09T03:15:17.242Z,101418.00
2022-10-09T03:17:43.764Z,101414.50
2022-10-09T03:20:10.268Z,101422.50
2022-10-09T03:22:36.697Z,101419.88
2022-10-09T03:25:03.498Z,101421.88
2022-10-09T03:27:30.874Z,101423.72
2022-10-09T03:29:58.546Z,101423.13
2022-10-09T03:32:25.602Z,101422.31
2022-10-09T03:34:52.139Z,101422.31
2022-10-09T03:37:18.635Z,101427.09
2022-10-09T03:39:45.155Z,101421.53
2022-10-09T03:42:11.635Z,101422.72
2022-10-09T03:44:38.026Z,101426.63
2022-10-09T03:47:04.559Z,101428.66
2022-10-09T03:49:31.037Z,101422.34
2022-10-09T03:51:57.483Z,101417.66
2022-10-09T03:54:23.906Z,101434.06
2022-10-09T03:56:50.330Z,101432.47
2022-10-09T03:59:16.810Z,101435.56
2022-10-09T04:01:43.249Z,101437.75
2022-10-09T04:04:09.660Z,101438.59
2022-10-09T04:06:36.136Z,101434.03
2022-10-09T04:09:02.597Z,101437.75
2022-10-09T04:11:29.003Z,101442.47
2022-10-09T04:13:55.496Z,101437.34
2022-10-09T04:16:21.981Z,101437.56
2022-10-09T04:18:48.531Z,101437.56
2022-10-09T04:21:15.077Z,101441.44
2022-10-09T04:23:41.622Z,101434.47
2022-10-09T04:26:08.147Z,101436.53
2022-10-09T04:28:34.717Z,101438.38
2022-10-09T04:31:01.434Z,101439.81
2022-10-09T04:33:28.149Z,101432.22
2022-10-09T04:35:55.696Z,101437.13
2022-10-09T04:38:23.409Z,101437.56
2022-10-09T04:41:01.818Z,101430.97
2022-10-09T04:43:28.397Z,101438.59
2022-10-09T04:45:55.352Z,101432.81
2022-10-09T04:48:22.227Z,101440.25
2022-10-09T04:50:49.015Z,101442.13
2022-10-09T04:53:15.752Z,101442.69
2022-10-09T04:55:44.076Z,101444.97
2022-10-09T04:58:12.137Z,101448.25
2022-10-09T05:00:43.953Z,101452.16
2022-10-09T05:03:10.660Z,101454.41
2022-10-09T05:05:37.617Z,101449.09
2022-10-09T05:08:04.302Z,101446.84
2022-10-09T05:10:32.278Z,101453.19
2022-10-09T05:12:59.216Z,101454.84
2022-10-09T05:15:25.894Z,101457.69
2022-10-09T05:17:52.340Z,101449.31
2022-10-09T05:20:18.848Z,101452.16
2022-10-09T05:22:46.375Z,101451.97
2022-10-09T05:25:13.776Z,101452.59
2022-10-09T05:27:40.215Z,101461.00
2022-10-09T05:30:07.799Z,101454.81
2022-10-09T05:32:34.503Z,101451.34
2022-10-09T05:35:00.955Z,101456.09
2022-10-09T05:37:27.511Z,101459.97
2022-10-09T05:39:53.968Z,101463.03
2022-10-09T05:42:20.404Z,101458.75
2022-10-09T05:44:46.846Z,101462.81
2022-10-09T05:47:17.768Z,101468.97
2022-10-09T05:49:44.209Z,101470.63
2022-10-09T05:52:10.619Z,101461.81
2022-10-09T05:54:37.092Z,101474.34
2022-10-09T05:57:04.903Z,101475.94
2022-10-09T05:59:31.321Z,101484.38
2022-10-09T06:01:58.021Z,101484.38
2022-10-09T06:04:25.035Z,101484.41
2022-10-09T06:06:51.964Z,101483.97
2022-10-09T06:09:24.051Z,101494.44
2022-10-09T06:11:51.135Z,101500.19
2022-10-09T06:14:18.206Z,101498.53
2022-10-09T06:16:45.512Z,101496.06
2022-10-09T06:19:14.411Z,101497.91
2022-10-09T06:21:41.212Z,101497.91
2022-10-09T06:24:07.963Z,101509.22
2022-10-09T06:26:35.006Z,101508.41
2022-10-09T06:29:02.518Z,101519.06
2022-10-09T06:31:32.169Z,101515.97
2022-10-09T06:34:00.241Z,101519.88
2022-10-09T06:36:29.207Z,101521.31
2022-10-09T06:38:56.039Z,101526.47
2022-10-09T06:41:25.180Z,101530.56
2022-10-09T06:43:54.338Z,101533.84
2022-10-09T06:46:22.846Z,101536.09
2022-10-09T06:48:49.347Z,101545.75
2022-10-09T06:51:19.099Z,101544.91
2022-10-09T06:53:50.647Z,101557.03
2022-10-09T06:56:19.796Z,101562.59
2022-10-09T06:58:46.820Z,101567.28
2022-10-09T07:01:23.904Z,101566.66
2022-10-09T07:04:02.914Z,101562.38
2022-10-09T07:06:31.734Z,101574.91
2022-10-09T07:09:07.212Z,101574.69
2022-10-09T07:11:39.235Z,101570.78
2022-10-09T07:14:08.082Z,101570.97
2022-10-09T07:16:38.117Z,101562.13
2022-10-09T07:19:11.065Z,101567.69
2022-10-09T07:21:40.839Z,101563.38
2022-10-09T07:24:08.122Z,101569.78
2022-10-09T07:26:37.447Z,101569.38
2022-10-09T07:29:05.996Z,101575.09
2022-10-09T07:31:32.459Z,101578.81
2022-10-09T07:33:59.558Z,101580.44
2022-10-09T07:36:26.872Z,101570.81
2022-10-09T07:38:55.357Z,101564.41
2022-10-09T07:41:23.114Z,101568.34
2022-10-09T07:43:49.852Z,101565.25
2022-10-09T07:46:18.844Z,101570.59
2022-10-09T07:48:45.983Z,101568.72
2022-10-09T07:51:15.286Z,101564.78
2022-10-09T07:53:41.975Z,101568.91
2022-10-09T07:56:13.976Z,101570.56
2022-10-09T07:58:40.430Z,101567.44
2022-10-09T08:01:07.895Z,101567.22
2022-10-09T08:03:35.344Z,101572.94
2022-10-09T08:06:01.881Z,101569.41
2022-10-09T08:08:28.586Z,101566.72
2022-10-09T08:10:55.019Z,101564.28
2022-10-09T08:13:21.532Z,101572.75
2022-10-09T08:15:48.042Z,101560.47
2022-10-09T08:18:15.285Z,101563.09
2022-10-09T08:20:41.875Z,101565.19
2022-10-09T08:23:08.288Z,101559.72
2022-10-09T08:25:36.571Z,101554.16
2022-10-09T08:28:04.106Z,101562.22
2022-10-09T08:30:30.815Z,101551.06
2022-10-09T08:32:57.283Z,101548.38
2022-10-09T08:35:23.711Z,101549.47
2022-10-09T08:37:50.274Z,101548.75
2022-10-09T08:40:29.458Z,101555.50
2022-10-09T08:43:07.020Z,101564.28
2022-10-09T08:45:35.095Z,101561.13
2022-10-09T08:48:06.485Z,101565.56
2022-10-09T08:50:38.012Z,101568.44
2022-10-09T08:53:24.338Z,101569.03
2022-10-09T08:56:03.313Z,101564.81
2022-10-09T08:58:35.847Z,101568.50
2022-10-09T09:01:21.721Z,101564.94
2022-10-09T09:04:06.558Z,101572.88
2022-10-09T09:06:42.711Z,101569.44
2022-10-09T09:09:20.914Z,101570.03
2022-10-09T09:12:12.299Z,101580.53
2022-10-09T09:14:56.801Z,101583.22
2022-10-09T09:17:41.464Z,101579.09
2022-10-09T09:20:20.999Z,101575.22
2022-10-09T09:22:49.413Z,101576.03
2022-10-09T09:25:19.776Z,101577.16
2022-10-09T09:27:46.559Z,101579.16
2022-10-09T09:30:13.081Z,101577.66
2022-10-09T09:32:43.635Z,101581.25
2022-10-09T09:35:25.262Z,101584.03
2022-10-09T09:37:53.012Z,101588.09
2022-10-09T09:40:37.602Z,101588.72
2022-10-09T09:43:16.057Z,101584.22
2022-10-09T09:45:43.812Z,101573.41
2022-10-09T09:48:18.698Z,101573.19
2022-10-09T09:50:52.907Z,101572.63
2022-10-09T09:53:39.681Z,101575.16
2022-10-09T09:56:07.045Z,101577.38
2022-10-09T09:58:39.195Z,101567.78
2022-10-09T10:01:07.286Z,101566.25
2022-10-09T10:03:35.715Z,101569.91
2022-10-09T10:06:02.439Z,101569.09
2022-10-09T10:08:33.724Z,101564.16
2022-10-09T10:11:07.696Z,101567.97
2022-10-09T10:13:45.548Z,101562.00
2022-10-09T10:16:21.597Z,101565.06
2022-10-09T10:18:48.408Z,101564.81
2022-10-09T10:21:17.598Z,101562.31
2022-10-09T10:24:04.302Z,101567.84
2022-10-09T10:26:42.920Z,101565.13
2022-10-09T10:29:19.572Z,101570.00
2022-10-09T10:32:11.102Z,101562.63
2022-10-09T10:34:45.847Z,101560.09
2022-10-09T10:37:14.964Z,101560.31
2022-10-09T10:39:50.999Z,101551.78
2022-10-09T10:42:53.167Z,101549.19
2022-10-09T10:45:33.546Z,101551.69
2022-10-09T10:48:02.766Z,101546.78
2022-10-09T10:50:41.347Z,101544.78
2022-10-09T10:53:32.250Z,101547.00
2022-10-09T10:56:05.365Z,101541.16
2022-10-09T10:58:46.946Z,101545.81
2022-10-09T11:01:35.356Z,101537.75
2022-10-09T11:04:21.392Z,101542.78
2022-10-09T11:07:18.207Z,101543.50
2022-10-09T11:10:15.860Z,101543.63
2022-10-09T11:12:53.623Z,101541.13
2022-10-09T11:15:44.750Z,101536.72
2022-10-09T11:18:29.108Z,101542.09
2022-10-09T11:21:40.782Z,101529.13
2022-10-09T11:24:26.966Z,101528.50
2022-10-09T11:27:03.146Z,101524.09
2022-10-09T11:29:39.804Z,101511.34
2022-10-09T11:32:22.251Z,101511.31
2022-10-09T11:34:57.589Z,101504.94
2022-10-09T11:37:29.612Z,101507.88
2022-10-09T11:39:56.892Z,101495.09
2022-10-09T11:42:25.947Z,101503.31
2022-10-09T11:45:18.852Z,101489.50
2022-10-09T11:48:10.132Z,101478.75
2022-10-09T11:50:48.926Z,101488.75
2022-10-09T11:53:18.716Z,101477.00
2022-10-09T11:55:45.855Z,101483.75
2022-10-09T11:58:24.764Z,101482.06
2022-10-09T12:00:57.721Z,101484.41
2022-10-09T12:03:27.446Z,101491.34
2022-10-09T12:06:04.999Z,101489.75
2022-10-09T12:08:31.771Z,101476.97
2022-10-09T12:11:07.311Z,101473.97
2022-10-09T12:13:36.730Z,101477.50
2022-10-09T12:16:03.805Z,101472.69
2022-10-09T12:18:34.537Z,101467.59
2022-10-09T12:21:05.307Z,101462.97
2022-10-09T12:23:36.058Z,101459.97
2022-10-09T12:26:03.764Z,101453.56
2022-10-09T12:28:45.859Z,101454.53
2022-10-09T12:31:30.213Z,101455.94
2022-10-09T12:34:04.773Z,101449.34
2022-10-09T12:36:31.897Z,101449.63
2022-10-09T12:39:12.645Z,101455.81
2022-10-09T12:41:39.893Z,101442.72
2022-10-09T12:44:15.697Z,101446.78
2022-10-09T12:46:42.265Z,101443.34
2022-10-09T12:49:19.303Z,101438.41
2022-10-09T12:51:53.843Z,101432.41
2022-10-09T12:54:25.153Z,101429.66
2022-10-09T12:56:56.391Z,101423.53
2022-10-09T12:59:26.165Z,101421.34
2022-10-09T13:01:57.880Z,101418.44
2022-10-09T13:04:34.094Z,101421.44
2022-10-09T13:07:05.720Z,101425.34
2022-10-09T13:09:37.832Z,101413.53
2022-10-09T13:12:09.259Z,101411.31
2022-10-09T13:14:45.929Z,101422.38
2022-10-09T13:17:33.497Z,101411.16
2022-10-09T13:20:21.419Z,101408.84
2022-10-09T13:22:55.435Z,101401.34
2022-10-09T13:25:23.392Z,101406.88
2022-10-09T13:27:50.110Z,101405.13
2022-10-09T13:30:16.956Z,101404.03
2022-10-09T13:32:43.452Z,101407.72
2022-10-09T13:35:09.890Z,101410.09
2022-10-09T13:37:36.701Z,101395.69
2022-10-09T13:40:05.842Z,101402.31
2022-10-09T13:42:37.096Z,101412.00
2022-10-09T13:45:05.665Z,101410.66
2022-10-09T13:47:32.168Z,101398.25
2022-10-09T13:49:59.107Z,101401.66
2022-10-09T13:52:25.627Z,101396.06
2022-10-09T13:54:52.146Z,101395.81
2022-10-09T13:57:18.790Z,101395.31
2022-10-09T13:59:45.534Z,101398.75
2022-10-09T14:02:12.324Z,101391.47
2022-10-09T14:04:39.014Z,101381.88
2022-10-09T14:07:05.544Z,101395.56
2022-10-09T14:09:31.997Z,101392.91
2022-10-09T14:11:58.887Z,101390.56
2022-10-09T14:14:25.327Z,101392.13
2022-10-09T14:16:51.816Z,101390.47
2022-10-09T14:19:18.402Z,101383.97
2022-10-09T14:21:46.801Z,101380.88
2022-10-09T14:24:14.467Z,101382.41
2022-10-09T14:26:41.275Z,101376.69
2022-10-09T14:29:07.825Z,101375.31
2022-10-09T14:31:34.265Z,101366.66
2022-10-09T14:34:00.843Z,101372.84
2022-10-09T14:36:27.576Z,101366.06
2022-10-09T14:38:54.225Z,101362.84
2022-10-09T14:41:21.617Z,101357.44
2022-10-09T14:43:56.070Z,101353.31
2022-10-09T14:46:24.308Z,101347.63
2022-10-09T14:48:53.131Z,101366.56
2022-10-09T14:51:21.290Z,101362.41
2022-10-09T14:53:47.926Z,101349.94
2022-10-09T14:56:20.085Z,101365.31
2022-10-09T14:58:47.128Z,101359.72
2022-10-09T15:01:15.563Z,101366.41
2022-10-09T15:03:42.667Z,101359.88
2022-10-09T15:06:11.777Z,101355.59
2022-10-09T15:08:41.505Z,101353.09
2022-10-09T15:11:09.479Z,101351.13
2022-10-09T15:13:36.768Z,101352.91
2022-10-09T15:16:09.585Z,101351.06
2022-10-09T15:18:36.163Z,101345.09
2022-10-09T15:21:02.862Z,101352.25
2022-10-09T15:23:29.735Z,101353.84
2022-10-09T15:25:58.287Z,101348.59
2022-10-09T15:28:25.510Z,101343.03
2022-10-09T15:30:54.705Z,101340.09
2022-10-09T15:33:25.658Z,101341.97
2022-10-09T15:35:53.844Z,101336.94
2022-10-09T15:38:22.579Z,101331.69
2022-10-09T15:40:51.432Z,101334.25
2022-10-09T15:43:19.831Z,101333.31
2022-10-09T15:45:47.150Z,101331.59
2022-10-09T15:48:21.861Z,101334.53
2022-10-09T15:50:50.651Z,101331.25
2022-10-09T15:53:18.958Z,101333.81
2022-10-09T15:55:48.039Z,101336.22
2022-10-09T15:58:15.807Z,101336.16
2022-10-09T16:00:47.304Z,101334.59
2022-10-09T16:03:15.053Z,101333.47
2022-10-09T16:05:44.321Z,101336.84
2022-10-09T16:08:11.798Z,101340.13
2022-10-09T16:10:47.860Z,101341.41
2022-10-09T16:13:15.498Z,101336.25
2022-10-09T16:15:42.611Z,101341.19
2022-10-09T16:18:09.935Z,101346.75
2022-10-09T16:20:37.977Z,101342.41
2022-10-09T16:23:05.333Z,101349.31
2022-10-09T16:25:32.253Z,101350.91
2022-10-09T16:27:58.734Z,101350.34
2022-10-09T16:30:25.688Z,101357.78
2022-10-09T16:32:52.856Z,101360.09
2022-10-09T16:35:19.896Z,101356.72
2022-10-09T16:37:46.316Z,101366.13
2022-10-09T16:40:13.058Z,101357.94
2022-10-09T16:42:39.807Z,101360.19
2022-10-09T16:45:06.872Z,101366.84
2022-10-09T16:47:34.016Z,101362.03
2022-10-09T16:50:00.486Z,101368.13
2022-10-09T16:52:27.048Z,101372.44
2022-10-09T16:54:57.073Z,101375.94
2022-10-09T16:57:26.060Z,101375.94
2022-10-09T16:59:52.542Z,101390.28
2022-10-09T17:02:18.964Z,101392.50
2022-10-09T17:04:46.248Z,101395.28
2022-10-09T17:07:12.887Z,101389.72
2022-10-09T17:09:40.491Z,101401.25
2022-10-09T17:12:14.940Z,101406.47
2022-10-09T17:14:41.427Z,101410.25
2022-10-09T17:17:10.035Z,101411.53
2022-10-09T17:19:37.900Z,101417.81
2022-10-09T17:22:05.238Z,101411.06
2022-10-09T17:24:32.148Z,101413.47
2022-10-09T17:26:58.767Z,101411.25
2022-10-09T17:29:25.245Z,101409.97
2022-10-09T17:31:52.078Z,101413.72
2022-10-09T17:34:18.723Z,101421.63
2022-10-09T17:36:45.791Z,101417.56
2022-10-09T17:39:15.383Z,101421.97
2022-10-09T17:41:44.237Z,101420.75
2022-10-09T17:44:10.716Z,101426.84
2022-10-09T17:46:37.185Z,101426.41
2022-10-09T17:49:04.513Z,101429.56
2022-10-09T17:51:37.083Z,101430.97
2022-10-09T17:54:12.298Z,101434.63
2022-10-09T17:56:39.717Z,101432.31
2022-10-09T17:59:06.370Z,101431.66
2022-10-09T18:01:32.958Z,101438.59
2022-10-09T18:03:59.836Z,101443.84
2022-10-09T18:06:26.631Z,101436.38
2022-10-09T18:08:55.386Z,101445.63
2022-10-09T18:11:24.197Z,101449.75
2022-10-09T18:13:50.992Z,101442.94
2022-10-09T18:16:22.828Z,101449.63
2022-10-09T18:18:49.153Z,101451.72
2022-10-09T18:21:17.062Z,101451.91
2022-10-09T18:23:45.028Z,101449.84
2022-10-09T18:26:14.543Z,101453.25
2022-10-09T18:28:42.671Z,101448.13
2022-10-09T18:31:14.293Z,101456.75
2022-10-09T18:33:40.797Z,101441.16
2022-10-09T18:36:11.825Z,101449.03
2022-10-09T18:38:38.327Z,101441.47
2022-10-09T18:41:08.263Z,101437.91
2022-10-09T18:43:35.200Z,101443.03
2022-10-09T18:46:01.725Z,101441.25
2022-10-09T18:48:35.166Z,101431.88
2022-10-09T18:51:03.515Z,101440.66
2022-10-09T18:53:32.450Z,101439.63
2022-10-09T18:55:59.139Z,101447.97
2022-10-09T18:58:25.803Z,101450.50
2022-10-09T19:00:52.266Z,101440.66
2022-10-09T19:03:18.731Z,101445.06
2022-10-09T19:05:45.195Z,101446.00
2022-10-09T19:08:12.336Z,101449.97
2022-10-09T19:10:39.260Z,101451.13
2022-10-09T19:13:05.887Z,101447.41
2022-10-09T19:15:32.499Z,101449.06
2022-10-09T19:17:59.440Z,101450.28
2022-10-09T19:20:29.383Z,101455.16
2022-10-09T19:22:56.368Z,101451.84
2022-10-09T19:25:23.401Z,101454.91
2022-10-09T19:27:50.633Z,101452.91
2022-10-09T19:30:18.529Z,101459.50
2022-10-09T19:32:46.328Z,101460.31
2022-10-09T19:35:13.380Z,101465.66
2022-10-09T19:37:40.284Z,101461.41
2022-10-09T19:40:07.957Z,101467.31
2022-10-09T19:42:35.039Z,101468.56
2022-10-09T19:45:01.550Z,101468.81
2022-10-09T19:47:28.391Z,101466.63
2022-10-09T19:49:54.978Z,101471.97
2022-10-09T19:52:23.013Z,101474.59
2022-10-09T19:54:49.986Z,101475.47
2022-10-09T19:57:17.006Z,101474.94
2022-10-09T19:59:44.130Z,101474.66
2022-10-09T20:02:11.176Z,101469.19
2022-10-09T20:04:38.146Z,101474.50
2022-10-09T20:07:07.927Z,101470.44
2022-10-09T20:09:38.906Z,101469.72
2022-10-09T20:12:07.250Z,101478.22
2022-10-09T20:14:34.273Z,101476.56
2022-10-09T20:17:02.332Z,101479.63
2022-10-09T20:19:31.340Z,101484.38
2022-10-09T20:21:58.575Z,101484.88
2022-10-09T20:24:25.052Z,101476.44
2022-10-09T20:26:51.540Z,101472.47
2022-10-09T20:29:17.950Z,101476.63
2022-10-09T20:31:44.480Z,101480.66
2022-10-09T20:34:10.988Z,101478.22
2022-10-09T20:36:39.013Z,101477.75
2022-10-09T20:39:11.601Z,101480.06
2022-10-09T20:41:41.112Z,101483.31
2022-10-09T20:44:07.749Z,101488.75
2022-10-09T20:46:36.916Z,101484.69
2022-10-09T20:49:06.372Z,101481.59
2022-10-09T20:51:35.196Z,101481.38
2022-10-09T20:54:02.332Z,101482.47
2022-10-09T20:56:31.540Z,101482.50
2022-10-09T20:58:59.065Z,101484.88
2022-10-09T21:01:25.961Z,101477.72
2022-10-09T21:03:52.476Z,101480.69
2022-10-09T21:06:20.802Z,101482.47
2022-10-09T21:08:47.766Z,101484.81
2022-10-09T21:11:17.071Z,101484.03
2022-10-09T21:13:44.617Z,101483.44
2022-10-09T21:16:13.596Z,101480.19
2022-10-09T21:18:40.485Z,101482.03
2022-10-09T21:21:09.689Z,101485.16
2022-10-09T21:23:36.328Z,101486.81
2022-10-09T21:26:03.583Z,101484.91
2022-10-09T21:28:30.239Z,101488.41
2022-10-09T21:30:56.776Z,101487.19
2022-10-09T21:33:23.267Z,101485.59
2022-10-09T21:35:51.621Z,101486.63
2022-10-09T21:38:20.790Z,101484.78
2022-10-09T21:40:49.237Z,101485.81
2022-10-09T21:43:16.199Z,101483.13
2022-10-09T21:45:42.782Z,101477.38
2022-10-09T21:48:15.523Z,101479.09
2022-10-09T21:50:42.380Z,101485.59
2022-10-09T21:53:08.888Z,101483.56
2022-10-09T21:55:37.646Z,101484.50
2022-10-09T21:58:04.908Z,101486.75
2022-10-09T22:00:31.442Z,101483.53
2022-10-09T22:02:58.015Z,101485.53
2022-10-09T22:05:24.493Z,101483.94
2022-10-09T22:07:50.950Z,101490.88
2022-10-09T22:10:17.515Z,101486.03
2022-10-09T22:12:43.925Z,101480.72
2022-10-09T22:15:10.842Z,101479.69
2022-10-09T22:17:37.315Z,101477.22
2022-10-09T22:20:04.246Z,101473.91
2022-10-09T22:22:31.676Z,101472.53
2022-10-09T22:24:59.742Z,101471.91
2022-10-09T22:27:26.490Z,101476.63
2022-10-09T22:29:53.035Z,101472.50
2022-10-09T22:32:19.486Z,101476.59
2022-10-09T22:34:45.981Z,101475.94
2022-10-09T22:37:12.438Z,101479.88
2022-10-09T22:39:38.937Z,101484.00
2022-10-09T22:42:05.426Z,101480.72
2022-10-09T22:44:32.135Z,101483.59
2022-10-09T22:46:58.586Z,101480.09
2022-10-09T22:49:24.995Z,101480.72
2022-10-09T22:51:51.464Z,101475.63
2022-10-09T22:54:19.010Z,101479.53
2022-10-09T22:56:46.214Z,101477.47
2022-10-09T22:59:15.590Z,101479.56
2022-10-09T23:01:53.498Z,101473.97
2022-10-09T23:04:21.643Z,101480.81
2022-10-09T23:06:59.021Z,101476.69
2022-10-09T23:09:29.007Z,101473.19
2022-10-09T23:11:56.660Z,101475.03
2022-10-09T23:14:23.740Z,101470.72
2022-10-09T23:16:50.298Z,101471.34
2022-10-09T23:19:17.847Z,101473.44
2022-10-09T23:21:47.276Z,101477.19
2022-10-09T23:24:18.254Z,101475.25
2022-10-09T23:26:46.035Z,101471.88
2022-10-09T23:29:18.023Z,101473.41
2022-10-09T23:31:44.833Z,101478.78
2022-10-09T23:34:11.800Z,101472.25
2022-10-09T23:36:38.503Z,101477.19
2022-10-09T23:39:06.223Z,101475.31
2022-10-09T23:41:33.110Z,101486.22
2022-10-09T23:43:59.536Z,101484.53
2022-10-09T23:46:29.251Z,101480.31
2022-10-09T23:48:55.771Z,101480.44
2022-10-09T23:51:24.451Z,101482.53
2022-10-09T23:53:51.092Z,101485.59
2022-10-09T23:56:23.122Z,101482.53
2022-10-09T23:58:49.949Z,101474.50
